createdAt,value
2023-01-21T00:01:24.421Z,837.9
2023-01-21T00:03:08.049Z,835.1
2023-01-21T00:04:51.738Z,828.4
2023-01-21T00:06:35.436Z,821.6
2023-01-21T00:08:19.145Z,818.4
2023-01-21T00:10:02.948Z,816.7
2023-01-21T00:11:46.552Z,815.4
2023-01-21T00:13:30.269Z,810.3
2023-01-21T00:15:13.967Z,806.8
2023-01-21T00:18:41.367Z,793.6
2023-01-21T00:20:25.099Z,792.3
2023-01-21T00:22:08.954Z,791.1
2023-01-21T00:23:52.489Z,789.5
2023-01-21T00:25:36.162Z,785
2023-01-21T00:27:19.874Z,780.9
2023-01-21T00:29:03.573Z,778.8
2023-01-21T00:30:47.272Z,777.6
2023-01-21T00:32:31.033Z,776.8
2023-01-21T00:34:14.705Z,773.9
2023-01-21T00:35:58.396Z,772.3
2023-01-21T00:37:42.089Z,767.3
2023-01-21T00:39:25.781Z,764
2023-01-21T00:41:09.665Z,762.5
2023-01-21T00:42:53.236Z,757.2
2023-01-21T00:44:36.884Z,755.3
2023-01-21T00:46:20.592Z,751.5
2023-01-21T00:48:04.300Z,746.7
2023-01-21T00:49:47.989Z,742.8
2023-01-21T00:51:31.698Z,741.3
2023-01-21T00:53:15.413Z,739.2
2023-01-21T00:54:59.105Z,737
2023-01-21T00:56:42.794Z,728.3
2023-01-21T00:58:26.498Z,724.1
2023-01-21T01:00:10.276Z,722.1
2023-01-21T01:01:53.889Z,718.4
2023-01-21T01:03:37.596Z,714.8
2023-01-21T01:05:21.416Z,710.5
2023-01-21T01:07:05.019Z,707.5
2023-01-21T01:08:48.700Z,703.3
2023-01-21T01:10:32.435Z,701.5
2023-01-21T01:12:16.094Z,701.1
2023-01-21T01:13:59.860Z,698.6
2023-01-21T01:15:43.502Z,695.2
2023-01-21T01:17:27.209Z,692
2023-01-21T01:19:10.894Z,690.4
2023-01-21T01:20:54.589Z,691.6
2023-01-21T01:22:38.352Z,689.9
2023-01-21T01:24:21.999Z,687.6
2023-01-21T01:26:05.710Z,685.7
2023-01-21T01:27:49.395Z,684.7
2023-01-21T01:29:33.110Z,679.3
2023-01-21T01:31:16.788Z,674.6
2023-01-21T01:33:00.506Z,668.1
2023-01-21T01:34:44.197Z,666.6
2023-01-21T01:36:27.915Z,666.9
2023-01-21T01:38:11.600Z,665.2
2023-01-21T01:39:55.317Z,664.2
2023-01-21T01:41:39.009Z,664.1
2023-01-21T01:43:22.793Z,661.1
2023-01-21T01:45:06.442Z,657.7
2023-01-21T01:46:50.112Z,657.6
2023-01-21T01:48:33.818Z,659
2023-01-21T01:50:17.648Z,658
2023-01-21T01:52:01.225Z,652.6
2023-01-21T01:53:44.921Z,651.4
2023-01-21T01:55:28.655Z,648.4
2023-01-21T01:57:12.332Z,645.8
2023-01-21T01:58:56.032Z,645.9
2023-01-21T02:00:39.735Z,645.7
2023-01-21T02:02:23.477Z,643.2
2023-01-21T02:04:07.194Z,643.8
2023-01-21T02:05:50.851Z,642.4
2023-01-21T02:07:34.542Z,638.9
2023-01-21T02:09:18.262Z,637.4
2023-01-21T02:11:01.950Z,633.3
2023-01-21T02:12:45.653Z,630.9
2023-01-21T02:14:29.365Z,630.2
2023-01-21T02:16:13.074Z,631.3
2023-01-21T02:17:56.760Z,628.5
2023-01-21T02:19:40.459Z,626
2023-01-21T02:21:24.163Z,623.8
2023-01-21T02:23:07.874Z,621.9
2023-01-21T02:24:51.573Z,616.5
2023-01-21T02:26:35.274Z,612.8
2023-01-21T02:28:18.962Z,612.9
2023-01-21T02:30:02.675Z,613.5
2023-01-21T02:31:46.382Z,610.6
2023-01-21T02:33:30.067Z,607.5
2023-01-21T02:35:13.823Z,604
2023-01-21T02:36:57.477Z,602.1
2023-01-21T02:38:41.167Z,600.6
2023-01-21T02:40:24.880Z,600.1
2023-01-21T02:42:08.588Z,597.6
2023-01-21T02:43:52.271Z,598.3
2023-01-21T02:45:35.968Z,595.6
2023-01-21T02:47:19.671Z,592.8
2023-01-21T02:49:03.368Z,591
2023-01-21T02:50:47.091Z,589.9
2023-01-21T02:52:30.797Z,587.1
2023-01-21T02:54:14.467Z,586.7
2023-01-21T02:55:58.172Z,584.9
2023-01-21T02:57:41.878Z,581.2
2023-01-21T02:59:25.639Z,582.3
2023-01-21T03:01:09.295Z,583.7
2023-01-21T03:02:52.979Z,584.5
2023-01-21T03:04:36.690Z,583.4
2023-01-21T03:06:20.378Z,581.8
2023-01-21T03:08:04.083Z,578.3
2023-01-21T03:09:47.794Z,576.9
2023-01-21T03:11:31.470Z,576.4
2023-01-21T03:13:15.190Z,573.2
2023-01-21T03:14:58.906Z,572.6
2023-01-21T03:16:42.596Z,572
2023-01-21T03:18:26.296Z,568.1
2023-01-21T03:20:10.026Z,566.7
2023-01-21T03:21:53.675Z,566.4
2023-01-21T03:23:37.392Z,563.5
2023-01-21T03:25:21.083Z,563.8
2023-01-21T03:27:04.788Z,562.4
2023-01-21T03:28:48.491Z,564.3
2023-01-21T03:30:32.198Z,563.7
2023-01-21T03:32:15.907Z,563
2023-01-21T03:33:59.607Z,561.8
2023-01-21T03:35:43.307Z,561.3
2023-01-21T03:37:27.005Z,560
2023-01-21T03:39:10.718Z,560.6
2023-01-21T03:40:54.390Z,558.8
2023-01-21T03:42:38.119Z,557.2
2023-01-21T03:44:21.823Z,555.3
2023-01-21T03:46:05.513Z,553.8
2023-01-21T03:47:49.191Z,551.6
2023-01-21T03:49:32.917Z,554
2023-01-21T03:51:16.609Z,554.5
2023-01-21T03:53:00.319Z,548.7
2023-01-21T03:54:44.033Z,549.2
2023-01-21T03:56:27.730Z,548.9
2023-01-21T03:58:11.446Z,550.4
2023-01-21T03:59:55.129Z,552.6
2023-01-21T04:01:38.842Z,552.6
2023-01-21T04:03:22.524Z,550.7
2023-01-21T04:05:06.260Z,549
2023-01-21T04:06:49.946Z,547.4
2023-01-21T04:08:33.641Z,546.5
2023-01-21T04:10:17.340Z,547.1
2023-01-21T04:12:01.028Z,549.1
2023-01-21T04:13:44.731Z,551.3
2023-01-21T04:15:28.447Z,548
2023-01-21T04:17:12.145Z,546.1
2023-01-21T04:18:55.860Z,547.7
2023-01-21T04:20:39.541Z,547.8
2023-01-21T04:22:23.274Z,546
2023-01-21T04:24:07.034Z,545.2
2023-01-21T04:25:50.665Z,541.6
2023-01-21T04:27:34.369Z,538.9
2023-01-21T04:29:18.065Z,539.8
2023-01-21T04:31:01.771Z,537.1
2023-01-21T04:32:45.460Z,536.7
2023-01-21T04:34:29.174Z,533.9
2023-01-21T04:36:12.877Z,530.7
2023-01-21T04:37:56.583Z,528.9
2023-01-21T04:39:40.267Z,528.3
2023-01-21T04:41:23.975Z,528.8
2023-01-21T04:43:07.678Z,527.2
2023-01-21T04:44:51.379Z,525.9
2023-01-21T04:46:35.062Z,528.7
2023-01-21T04:48:18.757Z,528.2
2023-01-21T04:50:02.480Z,528.3
2023-01-21T04:51:46.175Z,527.3
2023-01-21T04:53:29.868Z,529.1
2023-01-21T04:55:13.557Z,528.4
2023-01-21T04:56:57.327Z,526.2
2023-01-21T04:58:40.983Z,525.5
2023-01-21T05:00:24.686Z,524.3
2023-01-21T05:02:08.403Z,522.3
2023-01-21T05:03:52.106Z,521.4
2023-01-21T05:05:35.795Z,522.6
2023-01-21T05:07:19.496Z,521.1
2023-01-21T05:09:03.174Z,519.1
2023-01-21T05:10:46.900Z,515.6
2023-01-21T05:12:30.601Z,514.4
2023-01-21T05:14:14.296Z,515
2023-01-21T05:15:57.980Z,518.5
2023-01-21T05:17:41.702Z,517.5
2023-01-21T05:19:25.391Z,520.1
2023-01-21T05:21:09.106Z,521.2
2023-01-21T05:22:52.806Z,520.9
2023-01-21T05:24:36.510Z,518.8
2023-01-21T05:26:20.196Z,514.6
2023-01-21T05:28:03.998Z,513.2
2023-01-21T05:29:47.587Z,510.3
2023-01-21T05:31:31.300Z,510.5
2023-01-21T05:33:14.995Z,508.3
2023-01-21T05:34:58.701Z,509.2
2023-01-21T05:36:42.396Z,510.7
2023-01-21T05:38:26.106Z,509.7
2023-01-21T05:40:09.787Z,507.9
2023-01-21T05:41:53.498Z,507.9
2023-01-21T05:43:37.189Z,510.7
2023-01-21T05:45:20.895Z,510.1
2023-01-21T05:47:04.591Z,508.8
2023-01-21T05:48:48.292Z,512.8
2023-01-21T05:50:32.063Z,513
2023-01-21T05:52:15.703Z,512.8
2023-01-21T05:53:59.406Z,509
2023-01-21T05:55:43.096Z,508
2023-01-21T05:57:26.818Z,505.5
2023-01-21T05:59:10.524Z,507.3
2023-01-21T06:00:54.226Z,507.5
2023-01-21T06:04:21.627Z,505.3
2023-01-21T06:06:05.331Z,507.7
2023-01-21T06:07:49.014Z,509.1
2023-01-21T06:09:32.737Z,510.8
2023-01-21T06:11:16.447Z,512.8
2023-01-21T06:13:00.117Z,513.3
2023-01-21T06:14:43.828Z,516.4
2023-01-21T06:16:27.529Z,516.6
2023-01-21T06:18:11.231Z,517.3
2023-01-21T06:19:54.929Z,515.1
2023-01-21T06:21:38.661Z,514.9
2023-01-21T06:23:22.338Z,514.2
2023-01-21T06:25:06.028Z,514.8
2023-01-21T06:26:49.733Z,516.6
2023-01-21T06:28:33.418Z,514.9
2023-01-21T06:30:17.134Z,516.1
2023-01-21T06:32:00.839Z,515
2023-01-21T06:33:44.545Z,515.7
2023-01-21T06:35:28.227Z,517
2023-01-21T06:37:11.955Z,514.3
2023-01-21T06:38:55.648Z,514.1
2023-01-21T06:40:39.350Z,512.1
2023-01-21T06:42:23.047Z,511.3
2023-01-21T06:44:06.752Z,508.3
2023-01-21T06:45:50.484Z,508.4
2023-01-21T06:47:34.151Z,508.3
2023-01-21T06:49:17.845Z,509
2023-01-21T06:51:01.562Z,506
2023-01-21T06:52:45.267Z,506.8
2023-01-21T06:54:28.960Z,505.5
2023-01-21T06:56:12.655Z,505.7
2023-01-21T06:57:56.463Z,505.7
2023-01-21T06:59:40.085Z,506
2023-01-21T07:01:23.753Z,507.5
2023-01-21T07:03:07.510Z,507.9
2023-01-21T07:04:51.188Z,510.4
2023-01-21T07:06:34.871Z,511.3
2023-01-21T07:08:18.575Z,510.5
2023-01-21T07:10:02.308Z,509.9
2023-01-21T07:11:45.949Z,510.5
2023-01-21T07:13:29.658Z,509.5
2023-01-21T07:15:13.380Z,509.3
2023-01-21T07:16:57.069Z,508.8
2023-01-21T07:18:40.786Z,508.4
2023-01-21T07:20:24.473Z,509.1
2023-01-21T07:22:08.184Z,507.2
2023-01-21T07:23:51.882Z,506.2
2023-01-21T07:25:35.643Z,505.4
2023-01-21T07:27:19.298Z,506.8
2023-01-21T07:29:02.983Z,505.7
2023-01-21T07:30:46.692Z,505.1
2023-01-21T07:32:30.403Z,505.4
2023-01-21T07:34:14.085Z,505.1
2023-01-21T07:35:57.784Z,503.6
2023-01-21T07:37:41.483Z,503.4
2023-01-21T07:39:25.193Z,501.4
2023-01-21T07:41:08.896Z,499.9
2023-01-21T07:42:52.575Z,499.6
2023-01-21T07:44:36.435Z,498.1
2023-01-21T07:46:19.997Z,499.5
2023-01-21T07:48:03.727Z,500.8
2023-01-21T07:49:47.382Z,501.3
2023-01-21T07:51:31.192Z,503.4
2023-01-21T07:53:14.818Z,506.3
2023-01-21T07:54:58.499Z,508.3
2023-01-21T07:56:42.223Z,508.4
2023-01-21T07:58:25.913Z,506.6
2023-01-21T08:00:09.651Z,505.4
2023-01-21T08:01:53.318Z,505.2
2023-01-21T08:03:37.005Z,504.2
2023-01-21T08:05:20.706Z,505.1
2023-01-21T08:07:04.396Z,504.2
2023-01-21T08:08:48.131Z,502.6
2023-01-21T08:10:31.810Z,501.1
2023-01-21T08:12:15.572Z,503
2023-01-21T08:13:59.215Z,507.2
2023-01-21T08:15:42.927Z,507.6
2023-01-21T08:17:26.675Z,511
2023-01-21T08:19:10.302Z,514
2023-01-21T08:20:54.009Z,512.6
2023-01-21T08:22:37.749Z,512.1
2023-01-21T08:24:21.394Z,513.4
2023-01-21T08:26:05.135Z,513.5
2023-01-21T08:27:48.816Z,512.1
2023-01-21T08:29:32.517Z,512.9
2023-01-21T08:31:16.216Z,515.7
2023-01-21T08:32:59.912Z,516.6
2023-01-21T08:34:43.614Z,515
2023-01-21T08:36:27.418Z,514.6
2023-01-21T08:38:11.032Z,516.3
2023-01-21T08:39:54.793Z,520.9
2023-01-21T08:41:38.455Z,523.9
2023-01-21T08:43:22.121Z,524.7
2023-01-21T08:45:05.897Z,522.8
2023-01-21T08:46:49.529Z,525.6
2023-01-21T08:48:33.254Z,531.6
2023-01-21T08:50:16.959Z,531.9
2023-01-21T08:52:00.636Z,534.1
2023-01-21T08:53:44.328Z,536.8
2023-01-21T08:55:28.074Z,543.9
2023-01-21T08:57:11.833Z,548
2023-01-21T08:58:55.448Z,557
2023-01-21T09:00:39.134Z,564.2
2023-01-21T09:02:22.838Z,581.2
2023-01-21T09:04:06.540Z,660.2
2023-01-21T09:05:50.244Z,675.2
2023-01-21T09:07:33.943Z,686.5
2023-01-21T09:09:17.630Z,690.4
2023-01-21T09:11:01.351Z,694.4
2023-01-21T09:12:45.069Z,697.7
2023-01-21T09:14:28.769Z,710.4
2023-01-21T09:16:12.451Z,722.9
2023-01-21T09:17:56.262Z,725.3
2023-01-21T09:19:39.926Z,730.3
2023-01-21T09:21:23.617Z,739.3
2023-01-21T09:23:07.277Z,740
2023-01-21T09:24:50.988Z,733.9
2023-01-21T09:26:34.699Z,728.4
2023-01-21T09:28:18.395Z,710.3
2023-01-21T09:30:02.140Z,705.3
2023-01-21T09:31:45.792Z,698.2
2023-01-21T09:33:29.511Z,695
2023-01-21T09:35:13.179Z,702.3
2023-01-21T09:36:56.885Z,733.2
2023-01-21T09:38:40.589Z,762.8
2023-01-21T09:40:24.301Z,770.7
2023-01-21T09:42:07.992Z,777.2
2023-01-21T09:43:51.688Z,787.1
2023-01-21T09:45:35.375Z,789.9
2023-01-21T09:47:19.089Z,793
2023-01-21T09:49:02.804Z,800.1
2023-01-21T09:50:46.512Z,805.4
2023-01-21T09:52:30.196Z,812.3
2023-01-21T09:54:13.902Z,814.2
2023-01-21T09:55:57.684Z,815.6
2023-01-21T09:57:41.280Z,817
2023-01-21T09:59:25.029Z,822.7
2023-01-21T10:01:08.714Z,828.8
2023-01-21T10:02:52.408Z,831.5
2023-01-21T10:04:36.114Z,830.2
2023-01-21T10:06:19.801Z,825.5
2023-01-21T10:08:03.538Z,824.7
2023-01-21T10:09:47.207Z,834
2023-01-21T10:11:30.890Z,845.7
2023-01-21T10:13:14.622Z,854.8
2023-01-21T10:14:58.310Z,858.6
2023-01-21T10:16:42.019Z,860.5
2023-01-21T10:18:25.705Z,861.7
2023-01-21T10:20:09.469Z,859.2
2023-01-21T10:21:53.185Z,855.5
2023-01-21T10:23:36.882Z,853.5
2023-01-21T10:25:20.558Z,851.9
2023-01-21T10:27:04.267Z,849.6
2023-01-21T10:28:47.988Z,850.5
2023-01-21T10:30:31.680Z,855.7
2023-01-21T10:32:15.336Z,856.9
2023-01-21T10:33:59.087Z,854.9
2023-01-21T10:35:42.784Z,853.8
2023-01-21T10:37:26.450Z,854.2
2023-01-21T10:39:10.163Z,852.7
2023-01-21T10:40:53.864Z,851.9
2023-01-21T10:42:37.573Z,851.4
2023-01-21T10:44:21.235Z,853
2023-01-21T10:46:04.991Z,853.1
2023-01-21T10:47:48.625Z,854.1
2023-01-21T10:49:32.353Z,853.8
2023-01-21T10:51:16.032Z,850.8
2023-01-21T10:54:43.453Z,845.4
2023-01-21T10:56:27.119Z,845.2
2023-01-21T10:58:10.843Z,848.6
2023-01-21T10:59:54.555Z,849.7
2023-01-21T11:01:38.212Z,849.8
2023-01-21T11:03:21.929Z,851.7
2023-01-21T11:05:05.722Z,853.5
2023-01-21T11:06:49.333Z,861.4
2023-01-21T11:08:33.037Z,872.5
2023-01-21T11:10:16.788Z,881.2
2023-01-21T11:12:00.445Z,887.7
2023-01-21T11:13:44.140Z,890.2
2023-01-21T11:15:27.845Z,894.3
2023-01-21T11:17:11.578Z,898.8
2023-01-21T11:18:55.274Z,901.7
2023-01-21T11:20:38.965Z,903.6
2023-01-21T11:22:22.708Z,901
2023-01-21T11:24:06.408Z,900.7
2023-01-21T11:25:50.075Z,900.7
2023-01-21T11:27:33.754Z,901.2
2023-01-21T11:29:17.467Z,902.6
2023-01-21T11:31:01.156Z,899.5
2023-01-21T11:32:44.881Z,900.1
2023-01-21T11:34:28.628Z,892.8
2023-01-21T11:36:12.296Z,892.7
2023-01-21T11:37:56.004Z,906.5
2023-01-21T11:39:39.695Z,926.1
2023-01-21T11:41:23.390Z,916.6
2023-01-21T11:43:07.103Z,910.8
2023-01-21T11:44:50.780Z,912.1
2023-01-21T11:46:34.506Z,916.9
2023-01-21T11:48:18.208Z,919.8
2023-01-21T11:50:01.878Z,914.7
2023-01-21T11:51:45.580Z,912.8
2023-01-21T11:53:29.339Z,913.1
2023-01-21T11:55:12.994Z,915.8
2023-01-21T11:56:56.669Z,919.1
2023-01-21T11:58:40.393Z,918.5
2023-01-21T12:00:24.086Z,918.6
2023-01-21T12:02:07.803Z,919.2
2023-01-21T12:03:51.478Z,917.2
2023-01-21T12:05:35.210Z,918.8
2023-01-21T12:07:18.896Z,920.5
2023-01-21T12:09:02.703Z,919.8
2023-01-21T12:10:46.317Z,920.6
2023-01-21T12:12:30.011Z,924.4
2023-01-21T12:14:13.692Z,926.5
2023-01-21T12:15:57.479Z,931
2023-01-21T12:17:41.108Z,928
2023-01-21T12:19:24.843Z,923.4
2023-01-21T12:21:08.508Z,923.8
2023-01-21T12:22:52.226Z,921.6
2023-01-21T12:24:35.918Z,918.3
2023-01-21T12:26:19.656Z,918
2023-01-21T12:28:03.341Z,921
2023-01-21T12:29:47.074Z,923.4
2023-01-21T12:31:30.780Z,923.4
2023-01-21T12:33:14.439Z,926.2
2023-01-21T12:34:58.141Z,924.5
2023-01-21T12:36:41.844Z,921.4
2023-01-21T12:38:25.571Z,918.7
2023-01-21T12:40:09.243Z,915.6
2023-01-21T12:41:52.976Z,917.3
2023-01-21T12:43:36.671Z,923.1
2023-01-21T12:45:20.354Z,929.7
2023-01-21T12:47:04.054Z,935.4
2023-01-21T12:48:47.791Z,937.4
2023-01-21T12:50:31.479Z,936
2023-01-21T12:52:15.163Z,934.8
2023-01-21T12:53:58.865Z,935
2023-01-21T12:55:42.582Z,934.8
2023-01-21T12:57:26.268Z,931.5
2023-01-21T12:59:09.965Z,923.6
2023-01-21T13:00:53.669Z,907.5
2023-01-21T13:02:37.424Z,889.6
2023-01-21T13:04:21.072Z,879.3
2023-01-21T13:06:04.772Z,877
2023-01-21T13:07:48.461Z,871.7
2023-01-21T13:09:32.177Z,863.3
2023-01-21T13:11:15.908Z,859.2
2023-01-21T13:12:59.590Z,855.6
2023-01-21T13:14:43.272Z,855.2
2023-01-21T13:16:26.971Z,854
2023-01-21T13:18:10.687Z,854
2023-01-21T13:19:54.390Z,852.5
2023-01-21T13:21:38.071Z,852.1
2023-01-21T13:23:21.780Z,851.4
2023-01-21T13:25:05.500Z,851
2023-01-21T13:26:49.200Z,842.6
2023-01-21T13:28:32.879Z,839.5
2023-01-21T13:30:16.592Z,834.5
2023-01-21T13:32:00.288Z,830.2
2023-01-21T13:33:44.074Z,821.5
2023-01-21T13:35:27.809Z,816.2
2023-01-21T13:37:11.450Z,810.2
2023-01-21T13:38:55.168Z,803.8
2023-01-21T13:40:38.849Z,800.6
2023-01-21T13:42:22.574Z,796.8
2023-01-21T13:44:06.275Z,797.6
2023-01-21T13:45:49.975Z,797.2
2023-01-21T13:47:33.679Z,797
2023-01-21T13:49:17.391Z,797.1
2023-01-21T13:51:01.056Z,795.8
2023-01-21T13:52:44.739Z,795.6
2023-01-21T13:54:28.478Z,799.5
2023-01-21T13:56:12.212Z,800.8
2023-01-21T13:57:55.859Z,802.4
2023-01-21T13:59:39.559Z,805.5
2023-01-21T14:01:23.240Z,803
2023-01-21T14:03:06.959Z,797
2023-01-21T14:04:50.629Z,796.6
2023-01-21T14:06:34.378Z,797.5
2023-01-21T14:08:18.043Z,797
2023-01-21T14:10:01.752Z,793.2
2023-01-21T14:11:45.433Z,797
2023-01-21T14:13:29.151Z,797.3
2023-01-21T14:15:12.842Z,796.6
2023-01-21T14:16:56.545Z,799.1
2023-01-21T14:18:40.250Z,801.9
2023-01-21T14:20:23.931Z,803.4
2023-01-21T14:22:07.674Z,807.5
2023-01-21T14:23:51.348Z,812.9
2023-01-21T14:25:35.041Z,816
2023-01-21T14:27:18.749Z,821.5
2023-01-21T14:29:02.503Z,827.3
2023-01-21T14:30:46.160Z,833
2023-01-21T14:32:29.823Z,837.1
2023-01-21T14:34:13.528Z,842.5
2023-01-21T14:35:57.238Z,850.6
2023-01-21T14:37:40.951Z,855.1
2023-01-21T14:39:24.656Z,858.4
2023-01-21T14:41:08.339Z,858.6
2023-01-21T14:42:52.065Z,856.6
2023-01-21T14:44:35.750Z,858.7
2023-01-21T14:46:19.444Z,862.1
2023-01-21T14:48:03.135Z,863.3
2023-01-21T14:49:46.855Z,866.1
2023-01-21T14:51:30.550Z,869.9
2023-01-21T14:53:14.261Z,872.1
2023-01-21T14:54:57.963Z,879.2
2023-01-21T14:56:41.658Z,880.8
2023-01-21T14:58:25.346Z,882.1
2023-01-21T15:00:09.141Z,889.2
2023-01-21T15:01:52.844Z,893.8
2023-01-21T15:03:36.454Z,896.7
2023-01-21T15:05:20.230Z,899.7
2023-01-21T15:07:03.922Z,904.4
2023-01-21T15:08:47.635Z,907.9
2023-01-21T15:10:31.326Z,908.2
2023-01-21T15:12:15.002Z,908.7
2023-01-21T15:13:58.747Z,905.2
2023-01-21T15:15:42.492Z,901.6
2023-01-21T15:17:26.128Z,899.9
2023-01-21T15:19:09.842Z,895.3
2023-01-21T15:20:53.526Z,893.7
2023-01-21T15:22:37.269Z,898.3
2023-01-21T15:24:21.011Z,899
2023-01-21T15:26:04.775Z,909.7
2023-01-21T15:27:48.340Z,924.3
2023-01-21T15:29:32.043Z,927.1
2023-01-21T15:31:15.751Z,926.3
2023-01-21T15:32:59.503Z,927.4
2023-01-21T15:34:43.188Z,929
2023-01-21T15:36:26.869Z,929
2023-01-21T15:38:10.518Z,926.4
2023-01-21T15:39:54.220Z,928.3
2023-01-21T15:41:37.918Z,932.6
2023-01-21T15:43:21.600Z,939.8
2023-01-21T15:45:05.355Z,968.6
2023-01-21T15:46:49.156Z,967.6
2023-01-21T15:48:32.731Z,961.7
2023-01-21T15:50:16.396Z,958.2
2023-01-21T15:52:00.094Z,956
2023-01-21T15:53:43.902Z,956.4
2023-01-21T15:57:11.253Z,970.2
2023-01-21T15:58:54.941Z,979
2023-01-21T16:00:38.624Z,980.3
2023-01-21T16:02:22.303Z,977.5
2023-01-21T16:04:05.992Z,978.6
2023-01-21T16:07:33.399Z,989.6
2023-01-21T16:09:17.117Z,989.7
2023-01-21T16:11:00.819Z,987.5
2023-01-21T16:12:44.516Z,984.4
2023-01-21T16:14:28.207Z,977.1
2023-01-21T16:16:11.920Z,963
2023-01-21T16:17:55.623Z,945.4
2023-01-21T16:19:39.328Z,934
2023-01-21T16:21:23.013Z,930.1
2023-01-21T16:23:06.718Z,933.1
2023-01-21T16:24:50.424Z,944.6
2023-01-21T16:26:34.152Z,955.7
2023-01-21T16:28:17.812Z,988
2023-01-21T16:30:01.512Z,1049
2023-01-21T16:31:45.222Z,1067.4
2023-01-21T16:33:29.012Z,1071
2023-01-21T16:35:12.637Z,1064.6
2023-01-21T16:36:56.322Z,1051.5
2023-01-21T16:38:40.108Z,1035.6
2023-01-21T16:40:23.736Z,1032.5
2023-01-21T16:42:07.467Z,1039.1
2023-01-21T16:43:51.140Z,1047.5
2023-01-21T16:45:34.851Z,1056.5
2023-01-21T16:47:18.562Z,1062.5
2023-01-21T16:49:02.304Z,1063.5
2023-01-21T16:50:45.939Z,1059.7
2023-01-21T16:52:29.663Z,1056.6
2023-01-21T16:54:13.353Z,1059.2
2023-01-21T16:55:57.058Z,1062.6
2023-01-21T16:57:40.825Z,1067.9
2023-01-21T16:59:24.462Z,1075.2
2023-01-21T17:01:08.156Z,1081.7
2023-01-21T17:02:51.860Z,1090.4
2023-01-21T17:04:35.570Z,1093.3
2023-01-21T17:06:19.277Z,1094.5
2023-01-21T17:08:02.987Z,1091.8
2023-01-21T17:09:46.726Z,1086.2
2023-01-21T17:11:30.384Z,1081.5
2023-01-21T17:13:14.082Z,1079.1
2023-01-21T17:14:57.799Z,1072
2023-01-21T17:16:41.538Z,1072.9
2023-01-21T17:18:25.232Z,1071.5
2023-01-21T17:20:08.947Z,1072.3
2023-01-21T17:21:52.660Z,1072.4
2023-01-21T17:23:36.376Z,1075.8
2023-01-21T17:25:20.209Z,1078.6
2023-01-21T17:27:03.729Z,1081.3
2023-01-21T17:28:47.394Z,1084.5
2023-01-21T17:30:31.132Z,1089.3
2023-01-21T17:32:14.804Z,1092.3
2023-01-21T17:33:58.525Z,1092.9
2023-01-21T17:35:42.219Z,1092
2023-01-21T17:37:25.916Z,1092.5
2023-01-21T17:39:09.617Z,1094
2023-01-21T17:40:53.324Z,1097.9
2023-01-21T17:42:37.011Z,1103.1
2023-01-21T17:44:20.727Z,1102.9
2023-01-21T17:46:04.416Z,1104
2023-01-21T17:47:48.154Z,1109.8
2023-01-21T17:49:31.884Z,1113.1
2023-01-21T17:51:15.590Z,1114.7
2023-01-21T17:52:59.276Z,1113.8
2023-01-21T17:54:42.983Z,1113.1
2023-01-21T17:56:26.658Z,1113.5
2023-01-21T17:58:10.389Z,1117.9
2023-01-21T17:59:54.112Z,1118.3
2023-01-21T18:01:37.815Z,1120
2023-01-21T18:03:21.462Z,1124.6
2023-01-21T18:05:05.231Z,1130.5
2023-01-21T18:06:48.911Z,1129.4
2023-01-21T18:08:32.675Z,1127.1
2023-01-21T18:10:16.293Z,1126.4
2023-01-21T18:12:00.011Z,1125.2
2023-01-21T18:13:43.709Z,1119
2023-01-21T18:15:27.386Z,1118
2023-01-21T18:17:11.105Z,1118.6
2023-01-21T18:18:54.820Z,1118.3
2023-01-21T18:20:38.483Z,1119.2
2023-01-21T18:22:22.191Z,1121.2
2023-01-21T18:24:05.881Z,1123.9
2023-01-21T18:25:49.586Z,1126.1
2023-01-21T18:27:33.319Z,1126.3
2023-01-21T18:29:17.005Z,1124.3
2023-01-21T18:31:00.696Z,1123.4
2023-01-21T18:32:44.486Z,1126.3
2023-01-21T18:34:28.096Z,1121.2
2023-01-21T18:36:11.809Z,1119.2
2023-01-21T18:37:55.507Z,1118
2023-01-21T18:39:39.185Z,1121.2
2023-01-21T18:41:22.901Z,1122.6
2023-01-21T18:43:06.638Z,1122.5
2023-01-21T18:44:50.322Z,1121.6
2023-01-21T18:46:33.963Z,1119.6
2023-01-21T18:48:17.689Z,1115.6
2023-01-21T18:50:01.397Z,1115.9
2023-01-21T18:51:45.107Z,1114.9
2023-01-21T18:53:28.852Z,1112.7
2023-01-21T18:55:12.495Z,1114
2023-01-21T18:56:56.202Z,1112.5
2023-01-21T18:58:39.924Z,1110.9
2023-01-21T19:00:23.599Z,1107
2023-01-21T19:02:07.315Z,1102.1
2023-01-21T19:03:51.023Z,1099.6
2023-01-21T19:05:34.699Z,1100.1
2023-01-21T19:07:18.406Z,1099.2
2023-01-21T19:09:02.107Z,1098.6
2023-01-21T19:10:45.844Z,1098.9
2023-01-21T19:12:29.551Z,1097.7
2023-01-21T19:14:13.222Z,1094.7
2023-01-21T19:15:56.931Z,1089.6
2023-01-21T19:17:40.637Z,1086.4
2023-01-21T19:19:24.338Z,1085
2023-01-21T19:21:08.018Z,1081.1
2023-01-21T19:22:51.749Z,1080.2
2023-01-21T19:24:35.443Z,1079.6
2023-01-21T19:26:19.156Z,1076
2023-01-21T19:28:02.856Z,1074.9
2023-01-21T19:29:46.548Z,1073.5
2023-01-21T19:31:30.249Z,1072.4
2023-01-21T19:33:13.960Z,1072.5
2023-01-21T19:34:57.661Z,1070.6
2023-01-21T19:36:41.351Z,1067.4
2023-01-21T19:38:25.071Z,1065.6
2023-01-21T19:40:08.780Z,1067.3
2023-01-21T19:41:52.471Z,1063.5
2023-01-21T19:43:36.164Z,1058.8
2023-01-21T19:45:19.867Z,1059.3
2023-01-21T19:48:47.278Z,1054.8
2023-01-21T19:50:30.972Z,1055.1
2023-01-21T19:52:14.689Z,1056.2
2023-01-21T19:53:58.379Z,1053.5
2023-01-21T19:55:42.157Z,1051.9
2023-01-21T19:57:25.772Z,1050.4
2023-01-21T19:59:09.498Z,1048.7
2023-01-21T20:01:00.569Z,1043.3
2023-01-21T20:02:42.328Z,1037.6
2023-01-21T20:04:20.738Z,1035.6
2023-01-21T20:06:04.433Z,1034.6
2023-01-21T20:07:48.292Z,1034.9
2023-01-21T20:09:31.849Z,1037.1
2023-01-21T20:11:15.383Z,1037.9
2023-01-21T20:12:59.278Z,1039.4
2023-01-21T20:14:43.048Z,1038.1
2023-01-21T20:16:26.685Z,1034.8
2023-01-21T20:18:10.411Z,1031.2
2023-01-21T20:19:54.167Z,1024.6
2023-01-21T20:21:37.761Z,1021
2023-01-21T20:23:21.305Z,1021.8
2023-01-21T20:25:05.100Z,1024.7
2023-01-21T20:26:48.696Z,1023.6
2023-01-21T20:28:32.515Z,1022
2023-01-21T20:30:16.217Z,1023.1
2023-01-21T20:31:59.799Z,1028.5
2023-01-21T20:33:43.545Z,1040
2023-01-21T20:35:27.320Z,1058.9
2023-01-21T20:37:10.916Z,1071.6
2023-01-21T20:38:54.603Z,1081.1
2023-01-21T20:40:38.512Z,1085.3
2023-01-21T20:42:22.131Z,1086.5
2023-01-21T20:44:05.800Z,1088.8
2023-01-21T20:45:49.486Z,1092.4
2023-01-21T20:47:33.124Z,1092.8
2023-01-21T20:49:16.837Z,1090.8
2023-01-21T20:51:00.534Z,1081.2
2023-01-21T20:52:44.210Z,1072.1
2023-01-21T20:54:28.070Z,1067.9
2023-01-21T20:56:11.804Z,1064.9
2023-01-21T20:57:55.336Z,1061.6
2023-01-21T20:59:39.222Z,1060.7
2023-01-21T21:01:22.900Z,1059.9
2023-01-21T21:03:06.449Z,1057.7
2023-01-21T21:04:50.281Z,1056
2023-01-21T21:06:33.830Z,1056.4
2023-01-21T21:08:17.564Z,1053.2
2023-01-21T21:10:01.244Z,1050.3
2023-01-21T21:11:45.098Z,1048.9
2023-01-21T21:13:28.680Z,1050.4
2023-01-21T21:15:12.443Z,1061.8
2023-01-21T21:16:56.048Z,1066.6
2023-01-21T21:18:39.747Z,1065.4
2023-01-21T21:20:23.520Z,1063.7
2023-01-21T21:22:07.181Z,1061.5
2023-01-21T21:23:50.893Z,1059.5
2023-01-21T21:25:34.558Z,1058.1
2023-01-21T21:27:18.267Z,1055.3
2023-01-21T21:29:02.035Z,1054.4
2023-01-21T21:30:45.817Z,1050
2023-01-21T21:32:29.358Z,1046.4
2023-01-21T21:34:13.101Z,1051
2023-01-21T21:35:56.963Z,1052.7
2023-01-21T21:37:40.459Z,1047.9
2023-01-21T21:39:24.193Z,1047.2
2023-01-21T21:41:07.885Z,1047.5
2023-01-21T21:42:51.576Z,1047
2023-01-21T21:44:35.294Z,1048.3
2023-01-21T21:46:18.988Z,1050.5
2023-01-21T21:48:02.698Z,1051.8
2023-01-21T21:49:46.453Z,1050.5
2023-01-21T21:51:30.099Z,1052.5
2023-01-21T21:53:13.804Z,1049.3
2023-01-21T21:54:57.559Z,1047.3
2023-01-21T21:56:41.210Z,1046.4
2023-01-21T21:58:25.012Z,1046.6
2023-01-21T22:00:08.736Z,1046.9
2023-01-21T22:01:52.454Z,1047.8
2023-01-21T22:03:36.036Z,1051.7
2023-01-21T22:05:19.848Z,1048.9
2023-01-21T22:07:03.534Z,1048.2
2023-01-21T22:08:47.137Z,1048.5
2023-01-21T22:10:30.856Z,1045.8
2023-01-21T22:12:14.583Z,1044.8
2023-01-21T22:13:58.314Z,1046.4
2023-01-21T22:15:42.093Z,1043.6
2023-01-21T22:17:25.679Z,1043
2023-01-21T22:19:09.349Z,1042.1
2023-01-21T22:20:53.066Z,1043.9
2023-01-21T22:22:36.848Z,1044.1
2023-01-21T22:24:20.516Z,1047.7